Archival Weather

Norman Y Mineta San Jose Intl

San Jose, California (KSJC)

Report from: Saturday, February 24, 2024 5:53 AM PST
Current time: Saturday, June 22, 2024 3:46 AM PDT

Current weather – Weather history – Daily summaries
Weather forecast

Temperature8.9°C (48.0°F)
Wind chill8.3°C (47.0°F)
Dew point5.6°C (42.1°F)
Winds 3 kts (1.5 m/s, 3.5 mph) South-Southeast (150°)
Visibility10 mi. (16.1 km)
Clouds Few clouds 8,000 ft. (2,438 m)
Altimeter30.05 in.Hg (1018 mB)
Relative humidity80 %
Density altitude-743 ft. (-226 m)
Sea-level pressure101.8 kPa (1018 mB, 30.05 in.Hg)
Remarks Automated weather observing station with precipitation discriminator
Flight conditions Visual Meteorological Conditions
Raw dataKSJC 241353Z 15003KT 10SM FEW080 09/06 A3005 RMK AO2 SLP175 T00890056
An error has occurred. This application may no longer respond until reloaded. Reload 🗙